Time;durP1;ratioP1;P1;durP2;ratioP2;P2;SDS_P1;SDS_P2;PMS_P1;PMS_P2;Temp;Humidity;BMP_temperature;BMP_pressure;BME280_temperature;BME280_humidity;BME280_pressure;Samples;Min_cycle;Max_cycle;Signal;HPM_P1;HPM_P2
2021/12/02 00:01:25;;;;;;;16.33;2.45;;;;;;;3.28;100.00;99219.03;5050604;28;20482;-84
2021/12/02 00:03:58;;;;;;;16.88;2.78;;;;;;;3.32;100.00;99217.72;5067104;28;20071;-84
2021/12/02 00:06:24;;;;;;;8.70;1.98;;;;;;;3.25;100.00;99223.78;5049923;28;20045;-85
2021/12/02 00:08:51;;;;;;;9.88;2.33;;;;;;;3.22;100.00;99224.94;5064135;28;20776;-85
2021/12/02 00:11:20;;;;;;;12.50;2.45;;;;;;;3.25;100.00;99219.34;5065744;28;20036;-86
2021/12/02 00:13:55;;;;;;;15.15;2.67;;;;;;;3.23;100.00;99218.66;5078530;28;20144;-85
2021/12/02 00:16:30;;;;;;;11.15;2.67;;;;;;;3.21;100.00;99223.28;5059252;28;20067;-86
2021/12/02 00:21:50;;;;;;;9.75;3.33;;;;;;;3.21;100.00;99222.44;5063616;28;20403;-85
2021/12/02 00:24:19;;;;;;;12.43;2.72;;;;;;;3.16;100.00;99230.84;5048677;28;20086;-85
2021/12/02 00:26:46;;;;;;;9.60;2.22;;;;;;;3.14;100.00;99222.25;5049065;28;20128;-85
2021/12/02 00:29:15;;;;;;;11.40;2.33;;;;;;;3.16;100.00;99222.91;5065957;28;20040;-85
2021/12/02 00:31:40;;;;;;;15.25;2.20;;;;;;;3.13;100.00;99218.75;5050489;28;20078;-84
2021/12/02 00:34:09;;;;;;;12.05;3.38;;;;;;;3.07;100.00;99229.13;5015787;28;20041;-85
2021/12/02 00:36:39;;;;;;;8.65;2.28;;;;;;;3.13;100.00;99223.22;5064948;28;20054;-85
2021/12/02 00:39:18;;;;;;;14.23;2.95;;;;;;;3.01;100.00;99216.50;5047985;28;20067;-85
2021/12/02 00:41:51;;;;;;;15.90;3.28;;;;;;;3.00;100.00;99231.59;5045197;28;20052;-85
2021/12/02 00:44:18;;;;;;;14.68;2.38;;;;;;;2.95;100.00;99228.56;5044696;28;20405;-85
2021/12/02 00:46:46;;;;;;;8.68;2.67;;;;;;;2.96;100.00;99239.97;5060151;28;20045;-85
2021/12/02 00:49:17;;;;;;;11.88;2.40;;;;;;;2.93;100.00;99246.41;5041086;28;20032;-85
2021/12/02 00:51:47;;;;;;;9.20;2.40;;;;;;;2.91;100.00;99243.09;5079477;28;20033;-85
2021/12/02 00:54:13;;;;;;;11.63;2.60;;;;;;;2.94;100.00;99250.75;5048204;28;20055;-85
2021/12/02 00:56:44;;;;;;;10.23;3.10;;;;;;;2.93;100.00;99246.41;5029096;28;20135;-85
2021/12/02 00:59:11;;;;;;;8.80;2.70;;;;;;;2.95;100.00;99252.41;5053144;28;20550;-85
2021/12/02 01:01:38;;;;;;;8.25;2.40;;;;;;;2.93;100.00;99249.91;5029692;28;20041;-84
2021/12/02 01:04:08;;;;;;;8.25;1.60;;;;;;;2.87;100.00;99250.50;5042819;28;20048;-84
2021/12/02 01:06:34;;;;;;;12.25;2.60;;;;;;;2.90;100.00;99250.19;5046595;28;20044;-85
2021/12/02 01:09:01;;;;;;;9.43;2.17;;;;;;;2.88;100.00;99252.19;5048416;28;20039;-85
2021/12/02 01:11:26;;;;;;;10.05;2.75;;;;;;;2.93;100.00;99257.88;5063758;28;20101;-84
2021/12/02 01:13:54;;;;;;;9.88;2.67;;;;;;;2.94;100.00;99256.88;5060228;28;20451;-85
2021/12/02 01:16:20;;;;;;;13.77;2.35;;;;;;;2.84;100.00;99249.97;5062318;28;20036;-85
2021/12/02 01:18:48;;;;;;;10.82;2.50;;;;;;;2.85;100.00;99262.22;5031893;28;20037;-84
2021/12/02 01:21:21;;;;;;;10.85;2.25;;;;;;;2.88;100.00;99260.13;5062813;28;20069;-84
2021/12/02 01:23:57;;;;;;;15.15;3.00;;;;;;;2.90;100.00;99263.44;5078823;28;20044;-85
2021/12/02 01:26:23;;;;;;;8.95;2.25;;;;;;;2.89;100.00;99269.75;5060444;28;20041;-85
2021/12/02 01:28:50;;;;;;;8.55;2.47;;;;;;;2.91;100.00;99257.19;5028749;28;20045;-85
2021/12/02 01:31:16;;;;;;;8.35;2.10;;;;;;;2.90;100.00;99244.06;5065996;28;20199;-84
2021/12/02 01:33:46;;;;;;;9.40;2.13;;;;;;;2.92;100.00;99258.00;5055152;28;20067;-85
2021/12/02 01:36:14;;;;;;;7.93;2.13;;;;;;;2.98;100.00;99256.56;5061117;28;20455;-85
2021/12/02 01:38:41;;;;;;;10.07;2.30;;;;;;;2.99;100.00;99263.53;5066279;28;20044;-85
2021/12/02 01:41:07;;;;;;;12.43;1.90;;;;;;;3.02;100.00;99268.50;5057454;28;20040;-85
2021/12/02 01:43:49;;;;;;;7.82;1.88;;;;;;;3.06;100.00;99259.28;5044327;28;20067;-84
2021/12/02 01:46:20;;;;;;;11.68;2.58;;;;;;;3.10;100.00;99258.81;5045891;28;20047;-85
2021/12/02 01:49:03;;;;;;;11.70;2.40;;;;;;;3.14;100.00;99269.97;5048710;28;20443;-84
2021/12/02 01:51:31;;;;;;;7.35;1.92;;;;;;;3.11;100.00;99255.19;5061435;28;20515;-85
2021/12/02 01:54:08;;;;;;;11.38;2.22;;;;;;;3.14;100.00;99262.84;5044392;28;20807;-85
2021/12/02 01:56:41;;;;;;;7.20;2.00;;;;;;;3.15;100.00;99268.97;5062585;28;20036;-84
2021/12/02 01:59:17;;;;;;;11.05;2.10;;;;;;;3.15;100.00;99263.66;5046394;28;20090;-86
2021/12/02 02:01:45;;;;;;;7.20;1.83;;;;;;;3.15;100.00;99274.25;5025976;28;20051;-85
2021/12/02 02:04:11;;;;;;;6.95;1.60;;;;;;;3.11;100.00;99278.22;5060748;28;20381;-84
2021/12/02 02:06:48;;;;;;;10.75;1.52;;;;;;;3.09;100.00;99270.41;5046851;28;20044;-85
2021/12/02 02:09:14;;;;;;;9.63;1.67;;;;;;;3.05;100.00;99274.38;5061069;28;20148;-85
2021/12/02 02:11:40;;;;;;;9.27;1.63;;;;;;;3.05;100.00;99274.38;5064296;28;20127;-84
2021/12/02 02:14:08;;;;;;;12.05;2.00;;;;;;;3.02;100.00;99273.81;5053149;28;20040;-84
2021/12/02 02:16:34;;;;;;;9.07;1.50;;;;;;;2.99;100.00;99269.66;5061411;28;20040;-85
2021/12/02 02:18:59;;;;;;;7.35;1.48;;;;;;;2.95;100.00;99270.94;5046717;28;20040;-84
2021/12/02 02:21:25;;;;;;;10.40;1.88;;;;;;;2.89;100.00;99272.38;5037296;28;20041;-85
2021/12/02 02:23:58;;;;;;;8.40;1.73;;;;;;;2.89;100.00;99264.44;5028414;28;20114;-84
2021/12/02 02:26:27;;;;;;;8.55;1.58;;;;;;;2.87;100.00;99261.09;5042415;28;20040;-85
2021/12/02 02:28:54;;;;;;;;;;;;;;;2.82;100.00;99262.53;5059334;28;20044;-85
2021/12/02 02:31:21;;;;;;;11.23;1.48;;;;;;;2.77;100.00;99264.84;5062098;28;19927;-85
2021/12/02 02:33:50;;;;;;;9.75;1.60;;;;;;;2.70;100.00;99259.28;5044497;28;20416;-84
2021/12/02 02:36:18;;;;;;;4.60;1.30;;;;;;;2.75;100.00;99267.63;5057096;28;20028;-84
2021/12/02 02:38:54;;;;;;;10.20;1.50;;;;;;;2.70;100.00;99272.53;5047910;28;20135;-84
2021/12/02 02:41:21;;;;;;;4.13;1.00;;;;;;;2.65;100.00;99272.19;5045552;28;20102;-84
2021/12/02 02:43:48;;;;;;;6.28;1.13;;;;;;;2.70;100.00;99269.88;5063133;28;20040;-84
2021/12/02 02:46:25;;;;;;;4.05;1.10;;;;;;;2.70;100.00;99280.47;5046458;28;20124;-84
2021/12/02 02:48:52;;;;;;;8.80;1.10;;;;;;;2.69;100.00;99279.66;5051739;28;20459;-84
2021/12/02 02:51:18;;;;;;;9.93;2.20;;;;;;;2.66;100.00;99276.47;5063301;28;20045;-84
2021/12/02 02:53:51;;;;;;;7.68;1.20;;;;;;;2.61;100.00;99270.78;5063126;28;20040;-84
2021/12/02 02:56:18;;;;;;;6.75;1.00;;;;;;;2.55;100.00;99282.81;5043395;28;20037;-84
2021/12/02 03:01:34;;;;;;;5.45;1.05;;;;;;;2.61;100.00;99279.56;5060002;28;20477;-84
2021/12/02 03:04:52;;;;;;;6.15;1.67;;;;;;;2.60;100.00;99277.09;5030705;28;20125;-84
2021/12/02 03:07:03;;;;;;;4.15;1.00;;;;;;;2.49;100.00;99268.34;5019949;28;20045;-84
2021/12/02 03:12:04;;;;;;;6.00;1.15;;;;;;;2.49;100.00;99268.34;5062724;28;20047;-85
2021/12/02 03:14:48;;;;;;;5.40;0.95;;;;;;;2.53;100.00;99266.25;5064617;28;20477;-84
2021/12/02 03:17:14;;;;;;;3.97;0.75;;;;;;;2.47;100.00;99277.44;5049531;28;20038;-84
2021/12/02 03:19:42;;;;;;;4.43;1.02;;;;;;;2.52;100.00;99272.53;5059664;28;20040;-84
2021/12/02 03:22:07;;;;;;;7.85;1.00;;;;;;;2.40;100.00;99277.19;5045762;28;20428;-84
2021/12/02 03:24:33;;;;;;;4.40;1.27;;;;;;;2.39;100.00;99278.19;5063288;28;20064;-85
2021/12/02 03:27:04;;;;;;;5.80;1.13;;;;;;;2.39;100.00;99267.59;5042928;28;20071;-84
2021/12/02 03:29:30;;;;;;;5.53;0.85;;;;;;;2.39;100.00;99280.84;5070105;28;20032;-84
2021/12/02 03:31:57;;;;;;;4.80;1.02;;;;;;;2.39;100.00;99278.19;5063738;28;20528;-85
2021/12/02 03:34:24;;;;;;;5.10;1.20;;;;;;;2.35;100.00;99276.81;5063848;28;20060;-84
2021/12/02 03:36:50;;;;;;;6.10;1.10;;;;;;;2.31;100.00;99274.63;5029550;28;20052;-84
2021/12/02 03:39:18;;;;;;;3.17;0.80;;;;;;;2.28;100.00;99278.41;5027077;28;20104;-84
2021/12/02 03:41:44;;;;;;;5.20;1.10;;;;;;;2.26;100.00;99277.72;5055853;28;20068;-85
2021/12/02 03:44:10;;;;;;;4.07;0.90;;;;;;;2.18;100.00;99282.91;5062378;28;20562;-84
2021/12/02 03:46:36;;;;;;;6.53;1.00;;;;;;;2.19;100.00;99277.47;5059928;28;20037;-85
2021/12/02 03:49:05;;;;;;;4.60;0.63;;;;;;;2.13;100.00;99286.00;5043829;28;20127;-84
2021/12/02 03:51:31;;;;;;;2.75;0.95;;;;;;;2.18;100.00;99288.19;5043764;28;20060;-84
2021/12/02 03:53:57;;;;;;;5.05;0.80;;;;;;;2.14;100.00;99282.38;5046354;28;20033;-85
2021/12/02 03:56:24;;;;;;;8.13;1.25;;;;;;;2.18;100.00;99286.38;5045542;28;20040;-84
2021/12/02 03:58:51;;;;;;;4.25;1.00;;;;;;;2.13;100.00;99282.50;5046176;28;20673;-84
2021/12/02 04:01:17;;;;;;;2.80;0.88;;;;;;;2.18;100.00;99280.25;5033888;28;20393;-84
2021/12/02 04:03:43;;;;;;;5.15;1.38;;;;;;;2.13;100.00;99278.06;5046847;28;20040;-84
2021/12/02 04:06:09;;;;;;;4.72;1.35;;;;;;;2.18;100.00;99277.59;5046355;28;20035;-84
2021/12/02 04:08:49;;;;;;;3.20;1.10;;;;;;;2.18;100.00;99281.06;5043739;28;20041;-85
2021/12/02 04:16:19;;;;;;;6.22;1.98;;;;;;;2.05;100.00;99277.13;5060565;28;20047;-84
2021/12/02 04:18:45;;;;;;;5.85;1.95;;;;;;;2.14;100.00;99281.53;5045726;28;20053;-84
2021/12/02 04:21:11;;;;;;;5.30;1.45;;;;;;;2.05;100.00;99275.31;5062684;28;20629;-85
2021/12/02 04:23:38;;;;;;;11.13;2.85;;;;;;;2.11;100.00;99268.59;5062329;28;20041;-85
2021/12/02 04:26:03;;;;;;;5.32;1.70;;;;;;;2.11;100.00;99277.38;5063180;28;20821;-85
2021/12/02 04:28:30;;;;;;;6.47;2.22;;;;;;;2.06;100.00;99286.72;5042859;28;20048;-85
2021/12/02 04:30:58;;;;;;;6.25;3.03;;;;;;;2.09;100.00;99283.78;5079455;28;20053;-85
2021/12/02 04:33:23;;;;;;;9.10;3.00;;;;;;;2.05;100.00;99275.31;5041895;28;20052;-84
2021/12/02 04:35:53;;;;;;;5.22;2.47;;;;;;;1.99;100.00;99284.66;5044823;28;20308;-85
2021/12/02 04:38:20;;;;;;;7.30;2.95;;;;;;;2.00;100.00;99294.25;5035909;28;20041;-84
2021/12/02 04:40:46;;;;;;;5.68;3.17;;;;;;;2.01;100.00;99288.00;5044977;28;20509;-85
2021/12/02 04:43:11;;;;;;;10.43;3.55;;;;;;;1.99;100.00;99292.59;5048968;28;20033;-83
2021/12/02 04:45:37;;;;;;;9.25;3.58;;;;;;;2.00;100.00;99285.50;5058439;28;20059;-83
2021/12/02 04:48:02;;;;;;;9.45;3.50;;;;;;;1.97;100.00;99286.63;5041474;28;20040;-84
2021/12/02 04:50:28;;;;;;;8.60;3.45;;;;;;;1.96;100.00;99298.19;5052160;28;20052;-84
2021/12/02 04:52:53;;;;;;;6.75;3.05;;;;;;;1.96;100.00;99302.66;5046961;28;20408;-83
2021/12/02 04:55:20;;;;;;;9.90;4.07;;;;;;;1.88;100.00;99300.72;5048484;28;20544;-84
2021/12/02 04:57:47;;;;;;;7.80;3.72;;;;;;;1.95;100.00;99303.63;5062217;28;20064;-83
2021/12/02 05:00:15;;;;;;;11.15;3.90;;;;;;;1.89;100.00;99291.81;5030317;28;20522;-84
2021/12/02 05:02:42;;;;;;;11.18;4.20;;;;;;;1.85;100.00;99290.44;5049317;28;20049;-83
2021/12/02 05:05:08;;;;;;;10.77;4.00;;;;;;;1.91;100.00;99295.16;5055209;28;20493;-84
2021/12/02 05:07:34;;;;;;;8.40;3.70;;;;;;;1.87;100.00;99299.06;5060283;28;20044;-83
2021/12/02 05:10:00;;;;;;;6.22;3.70;;;;;;;1.84;100.00;99299.31;5032932;28;20090;-84
2021/12/02 05:12:25;;;;;;;8.73;3.42;;;;;;;1.79;100.00;99299.78;5047595;28;20041;-84
2021/12/02 05:14:51;;;;;;;10.20;4.28;;;;;;;1.80;100.00;99297.97;5048663;28;20044;-84
2021/12/02 05:17:17;;;;;;;9.40;3.95;;;;;;;1.76;100.00;99299.25;5046463;28;20062;-84
2021/12/02 05:19:44;;;;;;;8.38;4.18;;;;;;;1.72;100.00;99311.91;5056910;28;20040;-83
2021/12/02 05:22:10;;;;;;;6.95;3.50;;;;;;;1.73;100.00;99300.38;5058322;28;20051;-83
2021/12/02 05:24:36;;;;;;;11.77;4.50;;;;;;;1.70;100.00;99307.75;5024787;28;20098;-83
2021/12/02 05:27:02;;;;;;;8.98;4.53;;;;;;;1.73;100.00;99304.81;5041833;28;20109;-84
2021/12/02 05:29:29;;;;;;;9.70;4.22;;;;;;;1.69;100.00;99308.72;5042071;28;20045;-84
2021/12/02 05:31:55;;;;;;;9.48;4.20;;;;;;;1.67;100.00;99318.59;5061752;28;20071;-84
2021/12/02 05:34:22;;;;;;;13.40;4.28;;;;;;;1.65;100.00;99310.00;5061617;28;20050;-83
2021/12/02 05:36:48;;;;;;;10.50;4.97;;;;;;;1.71;100.00;99320.00;5028450;28;20063;-83
2021/12/02 05:39:13;;;;;;;6.78;3.40;;;;;;;1.68;100.00;99305.25;5037655;28;20069;-83
2021/12/02 05:41:38;;;;;;;9.68;4.30;;;;;;;1.70;100.00;99319.16;5045929;28;20575;-84
2021/12/02 05:44:05;;;;;;;9.57;3.72;;;;;;;1.70;100.00;99323.63;5025835;28;20041;-84
2021/12/02 05:46:30;;;;;;;8.38;3.35;;;;;;;1.74;100.00;99330.28;5044984;28;20043;-84
2021/12/02 05:48:57;;;;;;;7.00;3.40;;;;;;;1.67;100.00;99329.19;5061919;28;20052;-83
2021/12/02 05:51:22;;;;;;;8.05;3.58;;;;;;;1.72;100.00;99329.59;5043144;28;20037;-84
2021/12/02 05:53:48;;;;;;;7.07;3.30;;;;;;;1.67;100.00;99334.47;5044331;28;20051;-84
2021/12/02 05:56:15;;;;;;;6.28;3.10;;;;;;;1.76;100.00;99338.91;5046055;28;20026;-83
2021/12/02 05:58:41;;;;;;;7.60;2.83;;;;;;;1.75;100.00;99346.00;5057701;28;20395;-84
2021/12/02 06:01:06;;;;;;;6.25;2.88;;;;;;;1.79;100.00;99342.09;5041747;28;20041;-84
2021/12/02 06:03:36;;;;;;;7.78;2.65;;;;;;;1.80;100.00;99354.34;5059517;28;20043;-84
2021/12/02 06:06:01;;;;;;;;;;;;;;;1.83;100.00;99361.16;5046677;28;20553;-84
2021/12/02 06:08:27;;;;;;;8.55;2.58;;;;;;;1.78;100.00;99358.09;5061905;28;19916;-84
2021/12/02 06:10:52;;;;;;;7.38;2.65;;;;;;;1.78;100.00;99363.41;5047544;28;20469;-84
2021/12/02 06:13:19;;;;;;;6.40;2.60;;;;;;;1.82;100.00;99364.78;5060473;28;20051;-84
2021/12/02 06:15:45;;;;;;;5.22;2.40;;;;;;;1.80;100.00;99362.28;5044026;28;20056;-84
2021/12/02 06:18:10;;;;;;;3.13;1.60;;;;;;;1.72;100.00;99372.72;5045961;28;20044;-84
2021/12/02 06:20:37;;;;;;;3.58;1.48;;;;;;;1.75;100.00;99379.56;5039267;28;20062;-84
2021/12/02 06:23:02;;;;;;;4.55;1.50;;;;;;;1.62;100.00;99371.09;5046204;28;20037;-84
2021/12/02 06:27:59;;;;;;;3.78;1.15;;;;;;;1.54;100.00;99375.28;5028934;28;20429;-84
2021/12/02 06:30:25;;;;;;;2.92;1.10;;;;;;;1.51;100.00;99387.94;5038859;28;20398;-84
2021/12/02 06:32:52;;;;;;;3.28;1.23;;;;;;;1.48;100.00;99388.22;5060019;28;20048;-84
2021/12/02 06:35:18;;;;;;;3.78;1.42;;;;;;;1.49;100.00;99395.16;5050755;28;20550;-84
2021/12/02 06:37:50;;;;;;;3.33;1.25;;;;;;;1.41;100.00;99392.38;5050739;28;20041;-84
2021/12/02 06:40:16;;;;;;;2.33;1.40;;;;;;;1.35;100.00;99383.22;5027423;28;20089;-84
2021/12/02 06:42:42;;;;;;;3.72;0.95;;;;;;;1.22;100.00;99387.97;5045103;28;20514;-84
2021/12/02 06:45:09;;;;;;;3.50;2.05;;;;;;;1.24;100.00;99378.09;5057692;28;20047;-84
2021/12/02 06:47:39;;;;;;;3.92;1.08;;;;;;;1.18;100.00;99378.63;5043201;28;20155;-84
2021/12/02 06:50:09;;;;;;;6.82;2.42;;;;;;;1.21;100.00;99378.34;5045537;28;20045;-84
2021/12/02 06:52:35;;;;;;;5.72;2.25;;;;;;;1.20;100.00;99384.59;5027532;28;20505;-84
2021/12/02 06:55:00;;;;;;;4.53;1.92;;;;;;;1.18;100.00;99387.41;5063035;28;20051;-84
2021/12/02 06:57:31;;;;;;;4.05;1.40;;;;;;;1.17;100.00;99384.88;5057455;28;20032;-84
2021/12/02 07:00:03;;;;;;;2.78;1.30;;;;;;;1.13;100.00;99379.88;5022968;28;20443;-84
2021/12/02 07:02:30;;;;;;;2.78;1.40;;;;;;;1.06;100.00;99381.38;5061470;28;20052;-84
2021/12/02 07:04:58;;;;;;;3.80;1.50;;;;;;;1.03;100.00;99384.31;5028914;28;20036;-84
2021/12/02 07:07:26;;;;;;;1.90;0.93;;;;;;;1.02;100.00;99400.31;5058853;28;20099;-84
2021/12/02 07:09:51;;;;;;;3.15;1.30;;;;;;;1.01;100.00;99396.84;5054248;28;20485;-84
2021/12/02 07:12:28;;;;;;;2.22;1.23;;;;;;;1.04;100.00;99401.84;5064665;28;20045;-84
2021/12/02 07:14:54;;;;;;;3.17;1.48;;;;;;;1.03;100.00;99404.63;5026257;28;20182;-84
2021/12/02 07:17:19;;;;;;;2.20;1.25;;;;;;;0.97;100.00;99406.00;5042124;28;20100;-84
2021/12/02 07:19:48;;;;;;;2.72;1.30;;;;;;;0.92;100.00;99410.84;5030143;28;20427;-84
2021/12/02 07:22:13;;;;;;;3.03;1.38;;;;;;;0.89;100.00;99416.41;5042865;28;20094;-84
2021/12/02 07:24:38;;;;;;;3.50;2.10;;;;;;;1.02;100.00;99414.34;5063211;28;20040;-84
2021/12/02 07:27:05;;;;;;;5.05;2.10;;;;;;;0.93;100.00;99415.19;5033366;28;20067;-84
2021/12/02 07:29:31;;;;;;;4.18;2.25;;;;;;;0.97;100.00;99419.19;5047012;28;20036;-84
2021/12/02 07:32:02;;;;;;;5.25;3.05;;;;;;;1.04;100.00;99416.88;5048607;28;20051;-84
2021/12/02 07:34:33;;;;;;;6.30;3.83;;;;;;;0.96;100.00;99414.91;5036991;28;20037;-84
2021/12/02 07:37:01;;;;;;;5.43;3.80;;;;;;;1.01;100.00;99433.81;5061036;28;20048;-84
2021/12/02 07:39:32;;;;;;;6.22;3.88;;;;;;;1.03;100.00;99426.56;5021643;28;20675;-84
2021/12/02 07:41:59;;;;;;;7.68;3.92;;;;;;;1.09;100.00;99441.06;5063727;28;20609;-84
2021/12/02 07:44:25;;;;;;;8.70;4.40;;;;;;;1.08;100.00;99445.50;5059777;28;20044;-84
2021/12/02 07:46:51;;;;;;;7.10;4.25;;;;;;;1.05;100.00;99434.38;5042096;28;20048;-84
2021/12/02 07:49:16;;;;;;;10.68;4.53;;;;;;;1.17;100.00;99441.22;5045987;28;20043;-83
2021/12/02 07:51:50;;;;;;;7.95;5.20;;;;;;;1.13;100.00;99445.09;5010528;28;20037;-84
2021/12/02 07:54:17;;;;;;;6.80;4.38;;;;;;;1.20;100.00;99448.03;5060909;28;20822;-84
2021/12/02 07:56:47;;;;;;;7.30;3.92;;;;;;;1.19;100.00;99455.13;5053723;28;20128;-84
2021/12/02 07:59:16;;;;;;;6.28;3.40;;;;;;;1.23;100.00;99456.50;5068458;28;20036;-84
2021/12/02 08:01:43;;;;;;;4.30;2.70;;;;;;;1.21;100.00;99460.25;5044315;28;20054;-84
2021/12/02 08:04:08;;;;;;;6.32;3.53;;;;;;;1.22;100.00;99451.38;5042550;28;20568;-84
2021/12/02 08:06:36;;;;;;;4.68;2.95;;;;;;;1.25;100.00;99457.22;5030288;28;20123;-84
2021/12/02 08:09:05;;;;;;;4.55;2.60;;;;;;;1.21;100.00;99462.91;5046004;28;20057;-84
2021/12/02 08:11:36;;;;;;;5.78;3.10;;;;;;;1.26;100.00;99465.97;5061603;28;20356;-84
2021/12/02 08:14:02;;;;;;;5.30;3.08;;;;;;;1.30;100.00;99470.88;5060455;28;20162;-83
2021/12/02 08:16:28;;;;;;;9.10;3.10;;;;;;;1.22;100.00;99472.53;5043216;28;20070;-84
2021/12/02 08:18:54;;;;;;;6.30;2.70;;;;;;;1.18;100.00;99471.97;5043058;28;20052;-84
2021/12/02 08:21:19;;;;;;;6.93;3.35;;;;;;;1.30;100.00;99475.31;5063287;28;20045;-84
2021/12/02 08:23:44;;;;;;;5.55;3.42;;;;;;;1.29;100.00;99484.19;5029893;28;20048;-83
2021/12/02 08:26:16;;;;;;;6.00;3.10;;;;;;;1.31;100.00;99484.91;5050059;28;20041;-84
2021/12/02 08:28:42;;;;;;;5.10;2.90;;;;;;;1.33;100.00;99485.63;5038583;28;20071;-84
2021/12/02 08:31:09;;;;;;;4.28;2.35;;;;;;;1.34;100.00;99493.41;5066515;28;20071;-84
2021/12/02 08:33:34;;;;;;;6.43;3.50;;;;;;;1.47;100.00;99497.59;5049019;28;20497;-84
2021/12/02 08:36:05;;;;;;;6.97;3.72;;;;;;;1.49;100.00;99501.75;5015796;28;20037;-84
2021/12/02 08:38:35;;;;;;;4.40;2.85;;;;;;;1.50;100.00;99498.16;5061917;28;20055;-83
2021/12/02 08:41:01;;;;;;;4.68;3.10;;;;;;;1.50;100.00;99500.81;5049180;28;20358;-83
2021/12/02 08:43:28;;;;;;;7.05;3.55;;;;;;;1.58;100.00;99515.97;5064614;28;20051;-83
2021/12/02 08:45:55;;;;;;;6.32;3.47;;;;;;;1.65;100.00;99519.75;5044140;28;20037;-84
2021/12/02 08:48:20;;;;;;;6.25;3.25;;;;;;;1.62;100.00;99524.47;5041755;28;20165;-84
2021/12/02 08:50:47;;;;;;;6.35;3.38;;;;;;;1.65;100.00;99525.03;5048356;28;20100;-84
2021/12/02 08:53:15;;;;;;;6.88;4.10;;;;;;;1.67;100.00;99519.59;5045228;28;20169;-84
2021/12/02 08:55:43;;;;;;;9.77;4.53;;;;;;;1.67;100.00;99524.88;5030329;28;20131;-83
2021/12/02 08:58:09;;;;;;;8.73;3.83;;;;;;;1.67;100.00;99524.88;5032351;28;20493;-84
2021/12/02 09:00:39;;;;;;;12.20;4.90;;;;;;;1.67;100.00;99535.44;5061504;28;20083;-84
2021/12/02 09:03:08;;;;;;;13.23;6.85;;;;;;;1.70;100.00;99541.31;5064467;28;20052;-84
2021/12/02 09:05:35;;;;;;;7.18;3.95;;;;;;;1.73;100.00;99541.03;5047362;28;20068;-83
2021/12/02 09:08:00;;;;;;;9.98;5.35;;;;;;;1.80;100.00;99541.31;5049693;28;20090;-84
2021/12/02 09:10:27;;;;;;;7.60;3.90;;;;;;;1.78;100.00;99537.97;5058529;28;20040;-83
2021/12/02 09:12:54;;;;;;;6.25;3.47;;;;;;;1.75;100.00;99544.38;5050705;28;20392;-84
2021/12/02 09:15:23;;;;;;;5.40;3.25;;;;;;;1.78;100.00;99541.47;5039759;28;20516;-84
2021/12/02 09:17:49;;;;;;;5.82;2.90;;;;;;;1.80;100.00;99546.59;5060442;28;20048;-84
2021/12/02 09:20:15;;;;;;;6.45;3.58;;;;;;;1.89;100.00;99553.72;5062934;28;20086;-84
2021/12/02 09:22:43;;;;;;;8.82;3.85;;;;;;;1.93;100.00;99556.94;5060082;28;20052;-83
2021/12/02 09:25:10;;;;;;;5.40;3.38;;;;;;;1.86;100.00;99554.00;5031693;28;20181;-84
2021/12/02 09:27:36;;;;;;;5.32;2.42;;;;;;;1.83;100.00;99551.63;5061696;28;20106;-84
2021/12/02 09:30:04;;;;;;;5.47;2.95;;;;;;;1.87;100.00;99565.41;5061902;28;20501;-84
2021/12/02 09:32:31;;;;;;;5.43;3.13;;;;;;;1.87;100.00;99555.69;5073987;28;20099;-84
2021/12/02 09:34:58;;;;;;;7.38;3.13;;;;;;;1.86;100.00;99572.50;5049840;28;20298;-84
2021/12/02 09:37:24;;;;;;;7.38;3.30;;;;;;;1.85;100.00;99576.13;5044222;28;20043;-84
2021/12/02 09:39:49;;;;;;;4.60;2.95;;;;;;;1.95;100.00;99579.59;5033453;28;20048;-84
2021/12/02 09:42:15;;;;;;;4.70;2.55;;;;;;;1.92;100.00;99576.41;5046737;28;20040;-84
2021/12/02 09:44:44;;;;;;;5.50;3.58;;;;;;;1.98;100.00;99581.97;5062625;28;20400;-83
2021/12/02 09:47:10;;;;;;;6.57;3.47;;;;;;;2.09;100.00;99578.38;5061703;28;20493;-84
2021/12/02 09:49:37;;;;;;;5.38;2.83;;;;;;;2.12;100.00;99580.72;5039659;28;20049;-83
2021/12/02 09:52:08;;;;;;;5.57;3.00;;;;;;;2.21;100.00;99581.69;5034280;28;20539;-84
2021/12/02 09:54:41;;;;;;;4.63;2.90;;;;;;;2.29;100.00;99591.59;5045760;28;20385;-84
2021/12/02 09:57:14;;;;;;;5.00;2.40;;;;;;;2.26;100.00;99582.13;5059316;28;20501;-83
2021/12/02 09:59:49;;;;;;;6.22;2.28;;;;;;;2.28;100.00;99582.00;5041775;28;20049;-84
2021/12/02 10:02:21;;;;;;;4.18;2.20;;;;;;;2.29;100.00;99579.19;5062391;28;20202;-84
2021/12/02 10:07:45;;;;;;;6.97;2.60;;;;;;;2.30;100.00;99585.31;5064808;28;20041;-84
2021/12/02 10:12:36;;;;;;;6.25;2.25;;;;;;;2.31;100.00;99598.44;5061631;28;20043;-83
2021/12/02 10:15:08;;;;;;;5.97;2.83;;;;;;;2.32;100.00;99593.97;5046803;28;20093;-84
2021/12/02 10:17:39;;;;;;;5.53;2.83;;;;;;;2.38;100.00;99588.94;5045378;28;20037;-84
2021/12/02 10:22:41;;;;;;;5.45;2.97;;;;;;;2.48;100.00;99584.47;5047331;28;20040;-83
2021/12/02 10:25:08;;;;;;;5.30;3.85;;;;;;;2.51;100.00;99588.66;5047402;28;20041;-83
2021/12/02 10:27:35;;;;;;;6.63;3.10;;;;;;;2.56;100.00;99596.16;5060293;28;20050;-84
2021/12/02 10:30:19;;;;;;;5.05;2.22;;;;;;;2.52;100.00;99600.91;5064967;28;20045;-83
2021/12/02 10:32:50;;;;;;;6.32;3.03;;;;;;;2.52;100.00;99600.06;5064250;28;20054;-84
2021/12/02 10:35:20;;;;;;;2.90;2.03;;;;;;;2.49;100.00;99612.63;5046513;28;20594;-84
2021/12/02 10:37:46;;;;;;;3.25;1.50;;;;;;;2.52;100.00;99611.50;5062970;28;20067;-83
2021/12/02 10:40:14;;;;;;;2.10;1.40;;;;;;;2.53;100.00;99623.75;5044516;28;20413;-83
2021/12/02 10:42:44;;;;;;;4.20;1.55;;;;;;;2.53;100.00;99622.91;5029645;28;20047;-84
2021/12/02 10:45:19;;;;;;;;;;;;;;;2.57;100.00;99619.03;5059236;28;20037;-84
2021/12/02 10:47:49;;;;;;;3.08;1.80;;;;;;;2.38;100.00;99626.00;5060901;28;19924;-84
2021/12/02 10:50:18;;;;;;;3.08;1.60;;;;;;;2.41;100.00;99632.84;5062028;28;20060;-84
2021/12/02 10:52:43;;;;;;;3.33;1.33;;;;;;;2.44;100.00;99622.78;5077539;28;20117;-84
2021/12/02 10:55:16;;;;;;;2.83;1.45;;;;;;;2.49;100.00;99617.91;5061830;28;20128;-84
2021/12/02 10:57:47;;;;;;;2.20;1.50;;;;;;;2.51;100.00;99619.59;5063159;28;20123;-84
2021/12/02 11:00:24;;;;;;;4.30;1.30;;;;;;;2.52;100.00;99614.16;5027434;28;20135;-84
2021/12/02 11:02:55;;;;;;;3.22;1.58;;;;;;;2.54;100.00;99624.63;5044500;28;20056;-84
2021/12/02 11:05:32;;;;;;;3.10;1.70;;;;;;;2.60;100.00;99629.34;5041808;28;20032;-83
2021/12/02 11:08:06;;;;;;;2.72;1.65;;;;;;;2.64;100.00;99634.19;5027898;28;20102;-84
2021/12/02 11:10:39;;;;;;;4.22;2.38;;;;;;;2.72;100.00;99631.69;5039476;28;20197;-84
2021/12/02 11:13:06;;;;;;;2.67;1.73;;;;;;;2.69;100.00;99639.09;5060358;28;20127;-83
2021/12/02 11:15:34;;;;;;;3.97;1.92;;;;;;;2.64;100.00;99628.91;5045171;28;20045;-84
2021/12/02 11:18:03;;;;;;;2.72;1.40;;;;;;;2.67;100.00;99635.72;5027211;28;20098;-84
2021/12/02 11:20:56;;;;;;;2.40;1.67;;;;;;;2.68;100.00;99640.06;5025074;28;20068;-83
2021/12/02 11:23:42;;;;;;;2.80;1.52;;;;;;;2.68;100.00;99629.47;5030425;28;20037;-84
2021/12/02 11:26:16;;;;;;;4.15;2.20;;;;;;;2.62;100.00;99622.09;5030239;28;20052;-84
2021/12/02 11:28:43;;;;;;;3.83;2.20;;;;;;;2.74;100.00;99628.06;5055575;28;20048;-84
2021/12/02 11:31:13;;;;;;;2.50;1.50;;;;;;;2.72;100.00;99636.97;5059314;28;20040;-84
2021/12/02 11:33:41;;;;;;;4.63;2.30;;;;;;;2.76;100.00;99636.69;5034541;28;20170;-84
2021/12/02 11:36:16;;;;;;;4.45;2.65;;;;;;;2.73;100.00;99640.47;5062622;28;20086;-84
2021/12/02 11:38:42;;;;;;;4.43;2.03;;;;;;;2.78;100.00;99643.53;5054206;28;20040;-84
2021/12/02 11:41:08;;;;;;;2.35;1.10;;;;;;;2.79;100.00;99645.22;5062625;28;20036;-84
2021/12/02 11:43:37;;;;;;;3.13;1.30;;;;;;;2.81;100.00;99647.72;5038741;28;20039;-84
2021/12/02 11:46:06;;;;;;;2.25;1.50;;;;;;;2.77;100.00;99651.63;5063113;28;20133;-84
2021/12/02 11:48:34;;;;;;;1.77;1.38;;;;;;;2.81;100.00;99658.31;5060109;28;20040;-84
2021/12/02 11:51:08;;;;;;;2.45;1.25;;;;;;;2.77;100.00;99662.22;5044554;28;20056;-83
2021/12/02 11:53:34;;;;;;;2.13;1.52;;;;;;;2.77;100.00;99662.22;5051958;28;20041;-84
2021/12/02 11:56:04;;;;;;;2.78;1.80;;;;;;;2.79;100.00;99670.84;5045500;28;20098;-83
2021/12/02 11:58:30;;;;;;;4.10;2.20;;;;;;;2.76;100.00;99666.66;5042277;28;20437;-83
2021/12/02 12:00:58;;;;;;;4.70;1.92;;;;;;;2.79;100.00;99671.72;5047928;28;20049;-83